world map with TLM marked

TLM - Airport

This information may not be accurate or current and is not valid for navigation or flight planning. No warranty of fitness for any purpose is made or implied.

flag of Algeria

Donate via PayPal

Additional information is available on the NEW Great Circle Mapper

Location
City:  Tlemcen, Tlemcen, Algeria
Name:Zenata-Messali El Hadj Airport
ICAO / IATA:DAON / TLM

Details
Type:Airport (Aerodrome, Airfield)
Use:Public/Civil
Latitude:35°00'55"N (35.015278)
Longitude:1°27'03"W (-1.450832)
Elevation:814 ft (248 m)
Runways:1
Longest:8530 × 148 ft (2600 × 45 m)

Time
Timezone:UTC+1 (DST+3)
Local Time:

Weather
METAR:DAON  200730Z 20009KT 9999 FEW026 13/06 Q1008
TAF:DAON  200500Z 2006/2106 20014KT 9999 SCT026 T BECMG 2009/2012 24020KT TEMPO 2012/2021 6000 RA SCT023TCU

Related Locations
Nearby:
Farthest:NZOX: 12248 mi / 19712 km
Okiwi Station, AUK, NZ

Find:

   beyond  
but within

Other Information
Maps:
Sources:

  


 


Great Circle Mapper   Great Circle Mapper
Great Circle Mapper FAQ   Great Circle Mapper FAQ
  Karl's Home Page
KLSē   KLSē Home
   GC on Facebook
Airlines of the World   Airlines of the World
Donate via PayPal


Copyright © 2004-2018, Karl L. Swartz. All rights reserved.
All trademarks mentioned herein belong to their respective owners.

Please see credits for attribution and copyright information.

Karl Swartz <karl@kls2.com>
  Powered by FreeBSD
Valid HTML 4.01!
Labeled with ICRA
hCard Microformat
Geo Microformat